Time;durP1;ratioP1;P1;durP2;ratioP2;P2;SDS_P1;SDS_P2;PMS_P1;PMS_P2;Temp;Humidity;BMP_temperature;BMP_pressure;BME280_temperature;BME280_humidity;BME280_pressure;Samples;Min_cycle;Max_cycle;Signal;HPM_P1;HPM_P2
2021/07/30 00:00:27;;;;;;;13.55;8.75;;;;;;;20.40;71.76;99991.42;1432055;90;22360;-83
2021/07/30 00:02:59;;;;;;;12.18;8.13;;;;;;;20.40;71.54;99996.80;1429057;90;21415;-84
2021/07/30 00:05:25;;;;;;;11.85;9.03;;;;;;;20.38;71.65;99991.66;1426043;90;21415;-84
2021/07/30 00:07:58;;;;;;;14.15;8.58;;;;;;;20.35;71.46;99990.77;1412408;90;21444;-83
2021/07/30 00:10:33;;;;;;;12.75;8.48;;;;;;;20.32;71.72;99994.42;1435553;89;21801;-83
2021/07/30 00:13:03;;;;;;;10.87;8.50;;;;;;;20.31;72.10;99994.10;1434870;89;21443;-84
2021/07/30 00:15:32;;;;;;;9.75;7.97;;;;;;;20.28;72.18;99989.98;1437907;90;21480;-84
2021/07/30 00:17:58;;;;;;;15.32;7.83;;;;;;;20.26;72.24;99983.52;1425176;90;21465;-84
2021/07/30 00:20:25;;;;;;;12.28;8.73;;;;;;;20.26;72.13;99980.01;1445203;90;22397;-84
2021/07/30 00:22:51;;;;;;;10.53;8.50;;;;;;;20.22;72.18;99988.19;1440261;90;22537;-84
2021/07/30 00:25:18;;;;;;;10.50;8.23;;;;;;;20.17;72.04;99984.84;1433775;90;22315;-84
2021/07/30 00:27:44;;;;;;;11.27;7.93;;;;;;;20.14;72.30;99985.78;1427572;90;21507;-86
2021/07/30 00:30:12;;;;;;;12.77;8.50;;;;;;;20.11;72.96;99982.20;1418959;90;21342;-84
2021/07/30 00:32:39;;;;;;;10.57;8.03;;;;;;;20.07;72.67;99987.20;1413140;89;22405;-85
2021/07/30 00:35:06;;;;;;;8.65;7.75;;;;;;;20.05;73.01;99983.91;1439870;90;21413;-85
2021/07/30 00:37:37;;;;;;;9.58;8.60;;;;;;;20.03;72.98;99987.35;1427940;90;21335;-85
2021/07/30 00:40:06;;;;;;;11.90;9.45;;;;;;;19.99;72.91;99988.29;1418713;89;21527;-85
2021/07/30 00:42:32;;;;;;;10.47;9.30;;;;;;;19.95;73.03;99986.28;1413099;90;21475;-84
2021/07/30 00:45:00;;;;;;;9.80;8.63;;;;;;;19.91;73.07;99977.84;1417949;89;22018;-83
2021/07/30 00:47:30;;;;;;;11.97;9.53;;;;;;;19.87;73.20;99984.68;1411284;92;21473;-85
2021/07/30 00:49:58;;;;;;;;;;;;;;;19.86;73.25;99987.60;1416911;91;21437;-83
2021/07/30 00:52:27;;;;;;;10.97;9.10;;;;;;;19.82;72.67;99979.98;1419967;91;20275;-83
2021/07/30 00:54:55;;;;;;;12.33;7.42;;;;;;;19.84;72.52;99983.25;1393703;92;22434;-83
2021/07/30 00:57:23;;;;;;;11.67;9.33;;;;;;;19.80;72.64;99980.72;1400949;89;21408;-82
2021/07/30 00:59:51;;;;;;;10.93;8.63;;;;;;;19.77;72.55;99981.68;1390099;93;21400;-82
2021/07/30 01:02:18;;;;;;;16.07;9.90;;;;;;;19.72;72.58;99979.64;1397686;93;22532;-83
2021/07/30 01:04:44;;;;;;;12.07;9.20;;;;;;;19.68;72.91;99984.31;1401395;92;21414;-82
2021/07/30 01:07:11;;;;;;;11.60;9.70;;;;;;;19.65;73.11;99981.56;1398528;91;21482;-83
2021/07/30 01:09:37;;;;;;;9.33;8.10;;;;;;;19.63;73.59;99979.58;1424185;89;21354;-83
2021/07/30 01:12:07;;;;;;;12.20;8.00;;;;;;;19.61;73.73;99983.81;1411863;91;21402;-82
2021/07/30 01:14:33;;;;;;;9.95;8.88;;;;;;;19.59;74.11;99975.17;1404832;90;22429;-83
2021/07/30 01:17:00;;;;;;;13.43;8.07;;;;;;;19.55;73.89;99980.66;1414502;89;22340;-82
2021/07/30 01:19:27;;;;;;;12.67;8.23;;;;;;;19.54;73.68;99979.55;1426912;90;21367;-82
2021/07/30 01:21:54;;;;;;;12.57;9.03;;;;;;;19.52;73.83;99976.25;1433282;90;22316;-82
2021/07/30 01:24:23;;;;;;;11.77;9.07;;;;;;;19.49;73.57;99974.00;1415947;90;21398;-82
2021/07/30 01:26:51;;;;;;;11.43;8.17;;;;;;;19.45;73.50;99972.77;1408489;91;21384;-82
2021/07/30 01:29:18;;;;;;;12.30;8.17;;;;;;;19.41;73.80;99974.26;1409461;91;21356;-82
2021/07/30 01:31:44;;;;;;;13.90;8.90;;;;;;;19.37;74.44;99976.03;1408906;91;21464;-82
2021/07/30 01:34:10;;;;;;;9.63;8.63;;;;;;;19.36;74.58;99973.05;1400579;92;21386;-82
2021/07/30 01:36:37;;;;;;;9.87;7.57;;;;;;;19.34;74.40;99973.78;1402738;92;21379;-82
2021/07/30 01:39:03;;;;;;;9.23;7.63;;;;;;;19.35;74.00;99976.76;1402299;91;21344;-82
2021/07/30 01:41:30;;;;;;;10.67;8.83;;;;;;;19.41;73.76;99990.36;1438219;89;22455;-82
2021/07/30 01:43:57;;;;;;;12.50;8.50;;;;;;;19.39;73.65;99993.24;1432349;90;22271;-83
2021/07/30 01:46:23;;;;;;;9.50;8.47;;;;;;;19.36;73.60;99991.84;1436271;90;21487;-81
2021/07/30 01:48:49;;;;;;;13.40;8.00;;;;;;;19.34;73.43;99993.91;1416456;90;21451;-81
2021/07/30 01:51:16;;;;;;;9.40;7.60;;;;;;;19.30;74.08;99989.99;1439253;89;21450;-81
2021/07/30 01:53:42;;;;;;;10.83;8.50;;;;;;;19.26;74.37;99980.74;1435631;89;21472;-82
2021/07/30 01:56:08;;;;;;;11.90;7.67;;;;;;;19.22;74.56;99987.59;1440856;89;21361;-82
2021/07/30 01:58:35;;;;;;;13.50;8.37;;;;;;;19.19;74.91;99988.02;1411911;91;21436;-82
2021/07/30 02:01:03;;;;;;;10.33;7.33;;;;;;;19.17;74.55;99982.03;1438863;90;22271;-81
2021/07/30 02:03:30;;;;;;;10.67;7.73;;;;;;;19.15;74.56;99978.73;1439694;89;21761;-81
2021/07/30 02:05:57;;;;;;;11.90;7.67;;;;;;;19.16;74.46;99984.39;1435755;90;21429;-81
2021/07/30 02:08:23;;;;;;;11.77;7.97;;;;;;;19.13;74.54;99980.80;1431474;90;21412;-81
2021/07/30 02:10:49;;;;;;;10.73;8.77;;;;;;;19.08;74.62;99981.98;1426985;90;21376;-82
2021/07/30 02:14:16;;;;;;;11.13;7.27;;;;;;;19.02;74.85;99981.47;1436754;90;21442;-82
2021/07/30 02:15:52;;;;;;;10.03;7.90;;;;;;;19.01;75.01;99982.52;1413494;90;21390;-82
2021/07/30 02:18:19;;;;;;;12.40;8.03;;;;;;;18.98;75.16;99988.31;1434979;90;21384;-83
2021/07/30 02:20:45;;;;;;;9.37;8.47;;;;;;;18.94;75.19;99978.02;1432527;91;21361;-82
2021/07/30 02:23:12;;;;;;;8.70;7.67;;;;;;;18.93;75.10;99983.08;1422996;90;21508;-82
2021/07/30 02:25:38;;;;;;;8.67;7.80;;;;;;;18.91;74.97;99985.15;1426104;91;21391;-82
2021/07/30 02:28:04;;;;;;;12.70;8.93;;;;;;;18.88;75.08;99984.23;1416895;91;21354;-82
2021/07/30 02:30:31;;;;;;;10.07;9.03;;;;;;;18.82;75.15;99983.75;1420262;91;21450;-83
2021/07/30 02:32:57;;;;;;;13.20;9.63;;;;;;;18.78;75.27;99989.20;1426564;91;21488;-82
2021/07/30 02:35:24;;;;;;;11.63;8.80;;;;;;;18.74;75.32;99992.54;1419998;89;21383;-82
2021/07/30 02:37:50;;;;;;;13.87;8.90;;;;;;;18.71;75.77;99993.75;1406289;91;21408;-81
2021/07/30 02:40:16;;;;;;;13.03;7.90;;;;;;;18.70;75.47;99994.77;1409492;89;21943;-82
2021/07/30 02:42:43;;;;;;;10.50;8.03;;;;;;;18.68;75.34;99989.63;1432770;90;21973;-82
2021/07/30 02:45:11;;;;;;;8.50;7.60;;;;;;;18.65;75.60;99993.27;1441298;89;22315;-81
2021/07/30 02:47:37;;;;;;;11.47;9.00;;;;;;;18.62;75.45;99992.34;1443156;90;22382;-81
2021/07/30 02:50:05;;;;;;;9.13;8.23;;;;;;;18.61;75.58;99996.03;1424271;90;22427;-81
2021/07/30 02:52:31;;;;;;;14.07;8.97;;;;;;;18.58;75.57;99996.46;1428509;90;21419;-82
2021/07/30 02:54:58;;;;;;;10.07;8.40;;;;;;;18.52;75.94;99997.30;1417754;89;21356;-82
2021/07/30 02:57:24;;;;;;;11.00;8.00;;;;;;;18.47;76.00;99993.91;1440781;90;21406;-82
2021/07/30 02:59:50;;;;;;;16.37;8.43;;;;;;;18.43;76.40;99994.03;1437352;90;22331;-82
2021/07/30 03:02:16;;;;;;;11.30;7.87;;;;;;;18.40;76.94;99997.95;1409205;91;23647;-81
2021/07/30 03:04:43;;;;;;;14.13;8.77;;;;;;;18.41;76.95;99994.25;1435283;90;22440;-81
2021/07/30 03:07:09;;;;;;;15.07;10.13;;;;;;;18.43;76.91;100001.55;1430763;91;22359;-81
2021/07/30 03:09:35;;;;;;;11.90;8.80;;;;;;;18.43;77.68;100002.88;1430007;91;22359;-81
2021/07/30 03:12:02;;;;;;;13.57;8.03;;;;;;;18.47;77.31;100007.30;1426140;91;21361;-81
2021/07/30 03:14:28;;;;;;;13.63;7.90;;;;;;;18.51;76.98;100014.43;1412501;90;21408;-82
2021/07/30 03:16:55;;;;;;;10.57;8.50;;;;;;;18.57;76.21;100017.61;1441074;90;21391;-82
2021/07/30 03:19:21;;;;;;;10.20;7.67;;;;;;;18.56;75.73;100017.28;1418910;89;21494;-82
2021/07/30 03:21:47;;;;;;;13.73;9.00;;;;;;;18.52;75.62;100020.08;1412609;92;21394;-80
2021/07/30 03:24:13;;;;;;;10.27;9.10;;;;;;;18.52;75.67;100021.42;1426241;90;21383;-81
2021/07/30 03:26:40;;;;;;;13.07;9.10;;;;;;;18.51;75.72;100019.78;1424446;91;21421;-82
2021/07/30 03:29:06;;;;;;;9.37;7.87;;;;;;;18.54;75.73;100019.37;1423725;91;21354;-81
2021/07/30 03:31:32;;;;;;;12.90;8.40;;;;;;;18.57;75.61;100020.28;1435486;90;21384;-81
2021/07/30 03:34:01;;;;;;;10.27;9.10;;;;;;;18.59;75.75;100019.05;1439523;89;22337;-81
2021/07/30 03:36:27;;;;;;;12.77;8.73;;;;;;;18.61;75.45;100010.25;1442444;89;21613;-81
2021/07/30 03:38:53;;;;;;;10.73;8.87;;;;;;;18.64;75.28;100012.55;1444335;89;21443;-81
2021/07/30 03:41:20;;;;;;;14.83;9.10;;;;;;;18.66;75.20;100012.31;1429191;90;22359;-83
2021/07/30 03:43:46;;;;;;;14.43;8.60;;;;;;;18.68;75.35;100011.59;1444761;89;22270;-83
2021/07/30 03:46:14;;;;;;;11.60;8.00;;;;;;;18.70;75.41;100013.53;1454459;88;21419;-81
2021/07/30 03:48:40;;;;;;;12.37;8.27;;;;;;;18.72;75.42;100019.52;1460414;89;21382;-82
2021/07/30 03:51:06;;;;;;;9.20;7.80;;;;;;;18.75;75.35;100024.48;1431056;89;21391;-82
2021/07/30 03:53:33;;;;;;;15.10;10.90;;;;;;;18.83;75.15;100020.76;1434724;90;21390;-82
2021/07/30 03:55:59;;;;;;;19.30;10.57;;;;;;;18.91;75.11;100024.55;1431430;90;21480;-82
2021/07/30 03:58:25;;;;;;;11.03;9.60;;;;;;;18.94;75.33;100016.89;1429555;90;21324;-82
2021/07/30 04:00:52;;;;;;;9.97;8.60;;;;;;;18.99;75.45;100014.08;1429511;90;21354;-81
2021/07/30 04:03:18;;;;;;;10.23;8.67;;;;;;;19.06;75.54;100018.91;1432144;91;21345;-82
2021/07/30 04:05:44;;;;;;;15.93;9.70;;;;;;;19.15;75.52;100017.11;1431887;90;21332;-82
2021/07/30 04:08:10;;;;;;;12.80;8.73;;;;;;;19.21;75.67;100023.48;1438313;90;21376;-82
2021/07/30 04:10:37;;;;;;;10.63;8.80;;;;;;;19.21;75.64;100024.81;1432887;91;21331;-82
2021/07/30 04:13:04;;;;;;;11.13;8.93;;;;;;;19.26;75.89;100022.84;1433414;89;21376;-82
2021/07/30 04:15:32;;;;;;;12.47;10.30;;;;;;;19.32;75.97;100017.44;1427909;91;22388;-82
2021/07/30 04:17:58;;;;;;;12.90;10.20;;;;;;;19.42;76.08;100025.53;1426781;90;21383;-82
2021/07/30 04:20:24;;;;;;;12.00;9.90;;;;;;;19.47;75.89;100027.06;1433384;90;21383;-82
2021/07/30 04:22:50;;;;;;;66.15;13.88;;;;;;;19.52;75.67;100027.24;1421660;91;21427;-82
2021/07/30 04:25:16;;;;;;;31.37;11.03;;;;;;;19.57;75.65;100029.58;1439283;90;21553;-82
2021/07/30 04:27:43;;;;;;;13.90;10.37;;;;;;;19.61;75.62;100028.62;1435553;91;22345;-83
2021/07/30 04:30:10;;;;;;;14.20;9.50;;;;;;;19.63;75.61;100029.23;1427962;91;21383;-83
2021/07/30 04:32:37;;;;;;;11.97;8.63;;;;;;;19.70;75.45;100034.06;1434524;90;22300;-80
2021/07/30 04:35:04;;;;;;;14.47;10.38;;;;;;;19.80;75.28;100033.08;1439657;91;21369;-81
2021/07/30 04:37:30;;;;;;;12.35;11.03;;;;;;;19.90;74.98;100033.11;1439116;91;21376;-79
2021/07/30 04:39:56;;;;;;;12.10;10.25;;;;;;;20.00;74.73;100025.39;1436543;91;21427;-81
2021/07/30 04:42:22;;;;;;;15.78;10.38;;;;;;;20.11;74.72;100026.03;1441614;90;21471;-82
2021/07/30 04:44:49;;;;;;;14.35;9.38;;;;;;;20.13;74.82;100031.98;1442773;89;21561;-82
2021/07/30 04:47:15;;;;;;;15.03;9.25;;;;;;;20.21;74.83;100031.70;1441004;90;21368;-82
2021/07/30 04:49:41;;;;;;;14.03;8.88;;;;;;;20.26;74.70;100029.19;1446777;89;21593;-82
2021/07/30 04:52:08;;;;;;;13.15;9.35;;;;;;;20.32;74.87;100029.36;1439847;90;21391;-81
2021/07/30 04:54:34;;;;;;;17.12;11.12;;;;;;;20.40;75.01;100037.11;1438061;90;21354;-82
2021/07/30 04:57:01;;;;;;;13.88;10.00;;;;;;;20.51;74.87;100031.00;1440624;89;21479;-81
2021/07/30 04:59:27;;;;;;;15.08;9.75;;;;;;;20.62;74.59;100025.45;1446842;90;21362;-81
2021/07/30 05:01:53;;;;;;;18.07;10.65;;;;;;;20.70;74.42;100025.98;1433537;90;21501;-81
2021/07/30 05:04:20;;;;;;;16.10;10.65;;;;;;;20.79;74.34;100029.19;1426499;91;21355;-81
2021/07/30 05:06:46;;;;;;;18.23;10.30;;;;;;;20.91;74.23;100030.08;1437015;91;21396;-82
2021/07/30 05:09:13;;;;;;;18.10;10.50;;;;;;;21.03;74.28;100035.55;1434130;91;22397;-82
2021/07/30 05:11:39;;;;;;;29.20;11.90;;;;;;;21.15;74.18;100035.08;1460418;89;21471;-82
2021/07/30 05:14:05;;;;;;;17.65;11.63;;;;;;;21.25;73.85;100028.33;1427143;90;23652;-82
2021/07/30 05:16:32;;;;;;;12.07;10.15;;;;;;;21.31;73.56;100033.61;1428529;91;22409;-81
2021/07/30 05:18:58;;;;;;;18.77;11.60;;;;;;;21.35;73.07;100027.28;1440238;90;21413;-82
2021/07/30 05:21:24;;;;;;;20.88;11.28;;;;;;;21.34;72.75;100033.16;1445244;90;23363;-82
2021/07/30 05:23:51;;;;;;;21.12;11.08;;;;;;;21.41;72.97;100033.13;1425173;91;23000;-81
2021/07/30 05:26:17;;;;;;;15.08;10.20;;;;;;;21.49;73.11;100038.19;1422000;89;21563;-82
2021/07/30 05:28:44;;;;;;;15.70;10.95;;;;;;;21.57;73.00;100035.14;1440236;90;22345;-82
2021/07/30 05:31:18;;;;;;;18.90;10.18;;;;;;;21.67;72.90;100034.61;1437832;89;22397;-84
2021/07/30 05:33:46;;;;;;;21.42;10.30;;;;;;;21.77;72.73;100036.73;1428785;89;21391;-84
2021/07/30 05:36:19;;;;;;;14.63;10.78;;;;;;;21.86;72.56;100038.03;1428959;88;21488;-84
2021/07/30 05:38:47;;;;;;;25.62;10.38;;;;;;;21.94;72.25;100042.27;1429761;91;21392;-84
2021/07/30 05:41:16;;;;;;;13.30;8.60;;;;;;;22.01;71.84;100040.28;1437096;90;21441;-84
2021/07/30 05:43:44;;;;;;;17.00;8.60;;;;;;;22.09;71.75;100048.03;1444683;89;21494;-83
2021/07/30 05:46:18;;;;;;;16.10;9.83;;;;;;;22.18;71.51;100046.69;1456633;89;21360;-83
2021/07/30 05:48:40;;;;;;;16.85;10.35;;;;;;;22.32;71.58;100047.80;1438545;90;22477;-83
2021/07/30 05:51:06;;;;;;;11.48;9.73;;;;;;;22.53;70.96;100052.08;1445434;90;21317;-82
2021/07/30 05:53:32;;;;;;;16.05;10.50;;;;;;;22.53;70.96;100052.08;1448371;90;21405;-83
2021/07/30 05:56:00;;;;;;;15.53;12.07;;;;;;;22.65;70.46;100051.25;1448585;89;21435;-83
2021/07/30 05:58:27;;;;;;;16.97;11.55;;;;;;;22.69;69.78;100052.41;1446759;90;21464;-83
2021/07/30 06:00:53;;;;;;;18.57;11.65;;;;;;;22.76;70.01;100042.33;1448589;89;22374;-83
2021/07/30 06:03:19;;;;;;;14.28;11.73;;;;;;;22.87;69.98;100051.44;1450576;90;21288;-83
2021/07/30 06:05:45;;;;;;;21.90;11.48;;;;;;;22.97;69.87;100051.70;1452785;89;21361;-82
2021/07/30 06:08:13;;;;;;;18.80;11.30;;;;;;;23.07;69.70;100051.07;1446438;89;21383;-83
2021/07/30 06:10:39;;;;;;;15.45;11.10;;;;;;;23.20;69.50;100050.27;1453375;89;22271;-83
2021/07/30 06:13:06;;;;;;;18.45;12.60;;;;;;;23.32;68.76;100048.88;1454058;89;22432;-84
2021/07/30 06:15:32;;;;;;;14.38;11.05;;;;;;;23.40;68.57;100052.55;1453045;89;22301;-83
2021/07/30 06:18:03;;;;;;;25.82;11.38;;;;;;;23.53;68.46;100043.86;1451297;87;22211;-83
2021/07/30 06:20:31;;;;;;;18.50;10.48;;;;;;;23.62;68.13;100051.85;1439579;89;21295;-82
2021/07/30 06:22:58;;;;;;;17.55;9.48;;;;;;;23.64;65.84;100051.91;1451617;89;21331;-82
2021/07/30 06:25:26;;;;;;;17.87;9.90;;;;;;;23.70;66.70;100048.80;1454421;89;23309;-82
2021/07/30 06:27:53;;;;;;;17.82;10.75;;;;;;;23.84;66.19;100058.23;1427766;89;21589;-82
2021/07/30 06:30:19;;;;;;;17.02;9.65;;;;;;;23.86;65.62;100052.06;1452396;89;21457;-83
2021/07/30 06:32:46;;;;;;;16.65;10.45;;;;;;;23.83;65.64;100053.90;1447926;90;21398;-82
2021/07/30 06:35:15;;;;;;;16.00;9.63;;;;;;;23.97;66.03;100059.00;1438215;90;22146;-81
2021/07/30 06:37:42;;;;;;;13.03;9.07;;;;;;;24.01;65.74;100055.55;1458140;89;21361;-79
2021/07/30 06:40:10;;;;;;;20.27;9.13;;;;;;;24.14;65.62;100054.92;1449199;90;21680;-80
2021/07/30 06:42:37;;;;;;;12.43;9.68;;;;;;;24.19;64.88;100059.88;1443888;89;21413;-80
2021/07/30 06:45:06;;;;;;;18.10;9.95;;;;;;;24.31;65.15;100057.93;1417579;90;21415;-79
2021/07/30 06:47:34;;;;;;;18.70;9.70;;;;;;;24.41;65.04;100052.38;1426344;89;21377;-80
2021/07/30 06:50:01;;;;;;;15.10;8.75;;;;;;;24.47;64.83;100056.83;1435323;91;21375;-79
2021/07/30 06:52:27;;;;;;;22.55;9.08;;;;;;;24.60;64.67;100051.58;1415859;91;21459;-79
2021/07/30 06:54:54;;;;;;;13.30;8.80;;;;;;;24.68;64.49;100053.87;1426879;91;21433;-80
2021/07/30 06:57:21;;;;;;;24.07;9.20;;;;;;;24.83;64.65;100053.25;1424032;91;21310;-80
2021/07/30 06:59:48;;;;;;;21.07;8.45;;;;;;;24.97;64.64;100040.98;1432352;91;22393;-80
2021/07/30 07:02:16;;;;;;;11.83;7.97;;;;;;;24.95;62.91;100059.38;1432086;90;21421;-81
2021/07/30 07:04:42;;;;;;;11.85;8.18;;;;;;;25.09;62.84;100053.03;1433321;91;22233;-81
2021/07/30 07:07:08;;;;;;;12.25;7.83;;;;;;;25.18;62.80;100051.03;1432253;91;21541;-79
2021/07/30 07:09:34;;;;;;;12.25;8.70;;;;;;;25.30;62.29;100044.66;1430572;91;21465;-79
2021/07/30 07:12:05;;;;;;;13.25;8.55;;;;;;;25.41;61.60;100048.58;1424707;91;21296;-79
2021/07/30 07:14:31;;;;;;;12.13;8.43;;;;;;;25.50;61.40;100046.77;1422178;91;21303;-82
2021/07/30 07:16:57;;;;;;;13.95;7.37;;;;;;;25.57;61.09;100046.83;1432551;91;21510;-84
2021/07/30 07:19:25;;;;;;;15.28;8.58;;;;;;;25.70;61.19;100044.80;1439982;90;21362;-85
2021/07/30 07:21:51;;;;;;;18.15;9.15;;;;;;;25.80;61.21;100036.74;1428600;91;21494;-87
2021/07/30 07:24:17;;;;;;;13.40;7.92;;;;;;;25.92;61.42;100038.77;1428991;91;21480;-88
2021/07/30 07:26:43;;;;;;;15.00;9.20;;;;;;;26.08;60.63;100041.89;1414005;91;21339;-85
2021/07/30 07:29:10;;;;;;;17.32;8.03;;;;;;;26.11;60.25;100042.73;1427320;91;21384;-84
2021/07/30 07:31:36;;;;;;;17.52;9.60;;;;;;;26.20;59.88;100036.83;1424414;91;21436;-85
2021/07/30 07:34:02;;;;;;;17.92;8.95;;;;;;;26.34;60.33;100042.89;1422156;91;21547;-84
2021/07/30 07:36:29;;;;;;;14.43;7.92;;;;;;;26.47;59.87;100047.06;1439716;90;21435;-85
2021/07/30 07:38:56;;;;;;;13.00;8.98;;;;;;;26.55;58.81;100051.19;1429525;90;21413;-84
2021/07/30 07:41:24;;;;;;;15.85;8.45;;;;;;;26.65;59.21;100053.16;1411643;91;22612;-83
2021/07/30 07:43:50;;;;;;;14.18;8.20;;;;;;;26.77;58.99;100046.97;1430465;90;21353;-83
2021/07/30 07:46:17;;;;;;;20.10;8.40;;;;;;;26.81;58.62;100051.33;1406876;90;21491;-84
2021/07/30 07:48:44;;;;;;;12.65;7.95;;;;;;;26.86;58.30;100046.73;1425889;90;21873;-83
2021/07/30 07:51:10;;;;;;;16.30;7.87;;;;;;;26.96;58.61;100041.91;1401859;90;21398;-83
2021/07/30 07:53:36;;;;;;;13.30;9.30;;;;;;;27.01;58.57;100050.05;1422238;90;21361;-83
2021/07/30 07:56:06;;;;;;;19.20;8.68;;;;;;;27.15;58.34;100046.31;1424142;90;21524;-85
2021/07/30 07:58:33;;;;;;;15.83;8.98;;;;;;;27.28;58.04;100047.75;1439942;88;21332;-84
2021/07/30 08:01:00;;;;;;;16.52;8.58;;;;;;;27.42;57.76;100045.61;1434348;90;21729;-84
2021/07/30 08:03:30;;;;;;;16.62;9.05;;;;;;;27.50;57.50;100047.52;1396939;92;21438;-85
2021/07/30 08:05:56;;;;;;;15.08;8.78;;;;;;;27.64;57.42;100046.72;1418310;91;21310;-87
2021/07/30 08:08:26;;;;;;;19.20;8.55;;;;;;;27.79;57.31;100049.21;1412271;91;22461;-86
2021/07/30 08:10:52;;;;;;;;;;;;;;;27.75;56.52;100034.51;1427176;91;21579;-87
2021/07/30 08:13:21;;;;;;;13.80;8.38;;;;;;;27.86;55.68;100035.62;1429840;90;20577;-84
2021/07/30 08:15:51;;;;;;;14.28;8.35;;;;;;;27.89;55.53;100035.09;1429476;90;22425;-85
2021/07/30 08:18:19;;;;;;;13.45;8.05;;;;;;;27.99;55.47;100034.25;1425671;90;22412;-84
2021/07/30 08:20:46;;;;;;;13.62;7.97;;;;;;;28.13;55.92;100026.37;1417019;91;22382;-85
2021/07/30 08:23:13;;;;;;;15.18;9.05;;;;;;;28.30;55.92;100025.52;1433917;91;23349;-86
2021/07/30 08:25:40;;;;;;;12.82;8.43;;;;;;;28.39;54.95;100024.97;1419863;90;21545;-86
2021/07/30 08:28:06;;;;;;;10.28;7.97;;;;;;;28.51;55.33;100026.87;1426073;91;23383;-85
2021/07/30 08:30:33;;;;;;;15.98;8.83;;;;;;;28.61;55.04;100028.21;1423543;90;22404;-86
2021/07/30 08:32:59;;;;;;;22.55;7.95;;;;;;;28.68;53.55;100021.91;1423172;90;21420;-87
2021/07/30 08:35:26;;;;;;;17.25;8.70;;;;;;;28.52;53.62;100027.16;1422541;90;21476;-86
2021/07/30 08:37:58;;;;;;;12.45;8.08;;;;;;;28.68;54.18;100026.00;1423905;90;22381;-88
2021/07/30 08:40:33;;;;;;;12.75;7.70;;;;;;;28.79;54.65;100023.51;1430842;90;21429;-86
2021/07/30 08:43:05;;;;;;;17.42;8.33;;;;;;;28.82;54.01;100024.86;1426579;91;21435;-86
2021/07/30 08:45:31;;;;;;;14.18;7.67;;;;;;;28.86;54.13;100029.20;1425465;89;21532;-85
2021/07/30 08:48:00;;;;;;;14.10;7.70;;;;;;;29.03;54.01;100029.70;1424854;90;21586;-86
2021/07/30 08:50:34;;;;;;;16.60;8.27;;;;;;;29.13;53.30;100028.30;1423323;90;22863;-87
2021/07/30 08:53:04;;;;;;;16.40;7.80;;;;;;;29.23;53.15;100024.17;1499929;91;22097;-86
2021/07/30 08:55:31;;;;;;;14.15;8.68;;;;;;;29.30;52.71;100023.04;1437051;90;21280;-84
2021/07/30 08:57:58;;;;;;;10.55;7.60;;;;;;;29.37;52.41;100027.61;1507215;90;22095;-85
2021/07/30 09:00:25;;;;;;;13.65;7.08;;;;;;;29.47;51.99;100020.75;1513737;90;21377;-87
2021/07/30 09:02:57;;;;;;;16.05;6.55;;;;;;;29.59;51.74;100028.02;1424420;90;21243;-86
2021/07/30 09:05:35;;;;;;;13.13;7.30;;;;;;;29.70;51.66;100017.08;1512263;90;21221;-86
2021/07/30 09:08:07;;;;;;;10.23;6.85;;;;;;;29.90;51.79;100021.00;1433355;91;21326;-87
2021/07/30 09:10:44;;;;;;;9.85;6.45;;;;;;;30.08;50.94;100025.73;1502428;91;21695;-87
2021/07/30 09:13:29;;;;;;;10.80;7.08;;;;;;;30.19;50.27;100021.55;1512233;90;22359;-87
2021/07/30 09:16:10;;;;;;;17.12;7.60;;;;;;;30.20;49.42;100018.52;1465084;90;22242;-86
2021/07/30 09:18:44;;;;;;;13.45;6.97;;;;;;;30.30;49.27;100014.93;1439725;91;21523;-86
2021/07/30 09:21:33;;;;;;;10.13;6.70;;;;;;;30.35;48.97;100010.75;1421582;91;21413;-87
2021/07/30 09:24:09;;;;;;;11.88;6.25;;;;;;;30.45;47.87;100008.48;1430877;90;22355;-87
2021/07/30 09:26:53;;;;;;;13.15;6.08;;;;;;;30.56;47.80;100010.00;1428227;88;22612;-86
2021/07/30 09:29:27;;;;;;;10.28;6.67;;;;;;;30.65;47.63;100001.98;1430886;89;21347;-86
2021/07/30 09:32:16;;;;;;;9.30;5.78;;;;;;;30.30;47.74;100000.72;1438246;89;22270;-86
2021/07/30 09:34:51;;;;;;;;;;;;;;;30.24;46.65;100003.25;1422738;90;22523;-86
2021/07/30 09:37:24;;;;;;;10.38;6.67;;;;;;;30.01;45.15;100004.80;1421893;90;20315;-86
2021/07/30 09:39:54;;;;;;;14.05;7.83;;;;;;;30.29;47.31;99996.34;1437661;90;21910;-88
2021/07/30 09:42:33;;;;;;;15.38;6.83;;;;;;;30.53;47.70;100000.47;1426864;91;21413;-86
2021/07/30 09:45:04;;;;;;;10.03;5.75;;;;;;;30.72;46.75;99996.41;1435501;90;23137;-82
2021/07/30 09:47:34;;;;;;;7.85;5.37;;;;;;;30.98;47.08;100001.57;1433055;90;21853;-81
2021/07/30 09:50:09;;;;;;;16.35;6.47;;;;;;;31.19;46.07;100006.22;1433847;90;21325;-82
2021/07/30 09:52:41;;;;;;;14.25;6.05;;;;;;;31.33;44.99;100002.17;1439538;91;21587;-81
2021/07/30 09:55:13;;;;;;;11.38;5.70;;;;;;;31.52;44.71;99998.91;1438321;90;21310;-81
2021/07/30 09:57:41;;;;;;;17.12;6.65;;;;;;;31.83;44.25;100002.52;1443902;91;21571;-82
2021/07/30 10:00:10;;;;;;;7.62;6.22;;;;;;;32.08;43.58;99998.53;1423563;91;21391;-81
2021/07/30 10:02:40;;;;;;;20.88;6.90;;;;;;;32.23;42.60;99984.59;1435200;91;21375;-81
2021/07/30 10:05:12;;;;;;;12.03;6.20;;;;;;;32.27;42.45;99975.20;1426941;91;21536;-82
2021/07/30 10:07:42;;;;;;;18.48;5.80;;;;;;;32.33;42.09;99977.53;1434612;90;21383;-82
2021/07/30 10:10:18;;;;;;;8.73;6.45;;;;;;;32.38;41.99;99972.52;1435040;88;22567;-82
2021/07/30 10:12:47;;;;;;;10.48;6.65;;;;;;;32.54;41.38;99963.45;1428446;91;21383;-81
2021/07/30 10:15:10;;;;;;;12.20;5.75;;;;;;;32.74;41.24;99965.80;1433769;90;21472;-81
2021/07/30 10:17:44;;;;;;;12.37;6.42;;;;;;;32.85;40.91;99959.52;1445864;90;21919;-82
2021/07/30 10:20:14;;;;;;;9.60;6.30;;;;;;;32.90;41.05;99956.67;1431327;90;21398;-81
2021/07/30 10:22:56;;;;;;;;;;;;;;;32.95;41.05;99960.67;1445762;90;21429;-82
2021/07/30 10:25:32;;;;;;;20.95;16.30;;;;;;;32.57;39.45;99958.73;1443808;88;20397;-82
2021/07/30 10:28:04;;;;;;;13.88;5.55;;;;;;;32.56;38.89;99960.67;1436406;90;21450;-82
2021/07/30 10:30:55;;;;;;;10.03;6.03;;;;;;;32.29;38.73;99957.36;1440542;89;21494;-82
2021/07/30 10:33:40;;;;;;;13.35;6.03;;;;;;;32.26;38.85;99955.23;1434257;91;21383;-81
2021/07/30 10:36:10;;;;;;;10.78;5.35;;;;;;;32.48;40.14;99948.25;1431509;90;21287;-81
2021/07/30 10:38:36;;;;;;;10.70;5.30;;;;;;;32.78;39.41;99947.61;1429541;90;21494;-82
2021/07/30 10:41:13;;;;;;;6.90;5.17;;;;;;;33.02;37.39;99943.83;1434099;90;22373;-81
2021/07/30 10:44:05;;;;;;;12.65;5.62;;;;;;;33.11;37.53;99936.48;1437183;90;21523;-83
2021/07/30 10:46:32;;;;;;;12.25;10.98;;;;;;;33.19;35.47;99929.45;1443408;89;21420;-83
2021/07/30 10:48:58;;;;;;;17.35;9.20;;;;;;;33.34;37.54;99931.02;1444444;90;21361;-83
2021/07/30 10:51:27;;;;;;;15.15;5.95;;;;;;;33.37;37.92;99927.64;1430581;90;21427;-82
2021/07/30 10:54:02;;;;;;;6.17;5.00;;;;;;;33.50;37.60;99924.03;1439454;90;21967;-83
2021/07/30 10:56:34;;;;;;;6.58;4.72;;;;;;;33.69;37.58;99926.05;1441974;90;22242;-83
2021/07/30 10:59:04;;;;;;;9.43;5.42;;;;;;;33.88;36.69;99926.38;1439451;90;21516;-83
2021/07/30 11:01:42;;;;;;;14.30;5.22;;;;;;;33.87;35.15;99921.45;1430689;90;21689;-81
2021/07/30 11:04:10;;;;;;;9.25;4.90;;;;;;;33.62;35.56;99921.55;1430939;90;21398;-83
2021/07/30 11:06:47;;;;;;;13.32;5.17;;;;;;;33.72;35.60;99914.17;1435128;91;21444;-83
2021/07/30 11:09:19;;;;;;;4.37;3.98;;;;;;;33.82;35.35;99916.66;1441420;90;22486;-84
2021/07/30 11:12:03;;;;;;;10.72;4.80;;;;;;;33.73;35.24;99914.44;1445401;90;21361;-83
2021/07/30 11:14:32;;;;;;;13.75;5.12;;;;;;;33.77;35.61;99916.22;1436953;88;21696;-82
2021/07/30 11:17:07;;;;;;;;;;;;;;;33.17;35.81;99916.05;1439117;88;21368;-82
2021/07/30 11:19:38;;;;;;;16.35;4.72;;;;;;;33.06;34.68;99917.44;1428072;90;20427;-82
2021/07/30 11:22:08;;;;;;;7.65;5.05;;;;;;;33.05;36.29;99914.42;1418119;90;22088;-82
2021/07/30 11:24:43;;;;;;;11.35;5.50;;;;;;;33.09;34.98;99912.70;1430948;90;21405;-82
2021/07/30 11:27:12;;;;;;;24.07;5.60;;;;;;;33.30;36.07;99912.20;1436476;89;21384;-82